Peru, NY (12972)

10:05 AM EDT on June 27, 2017 (GMT -0400)
Northern Orchard | | Change Station
Active Advisory: Special Statement

Elev 0 ft 44.56 °N, 73.54 °W | Updated 8 seconds ago

Partly Cloudy
Partly Cloudy
65.7 °F
Feels Like 65.7 °F
N
1.2
Wind Variable Wind from WNW
Gusts 5.0 mph

Today
High -- | Low -- °F
--% Chance of Precip.
Yesterday
High -- | Low -- °F
Precip. -- in
Pressure 29.95 in
Visibility 10.0 miles
Clouds Few 2000 ft
Dew Point 56 °F
Humidity 73%
Rainfall 0.13 in
Snow Depth Not available.
5:11 AM 8:43 PM
Waxing Crescent, 16% visible
METAR KPBG 271353Z AUTO 13006KT 10SM FEW020 18/14 A2995 RMK AO2 SLP140 T01830139
Pressure 29.95 in
Visibility 10.0 miles
Clouds Few 2000 ft
Dew Point 56 °F
Humidity 73%
Rainfall 0.13 in
Snow Depth Not available.
5:11 AM 8:43 PM
Waxing Crescent, 16% visible
METAR KPBG 271353Z AUTO 13006KT 10SM FEW020 18/14 A2995 RMK AO2 SLP140 T01830139

Get Your Daily Forecast Email!

Thanks for signing up!

Be on the lookout for a verification email in your inbox.

You'll start receiving severe weather alerts in your inbox..

×

10-Day Weather Forecast

Almanac

Astronomy

Jun. 27, 2017 Rise Set
Actual Time
Civil Twilight
Nautical Twilight
Astronomical Twilight
Moon
Length of Visible Light
Length of Day
Tomorrow will be .
, % of the Moon is Illuminated

Today's Extremes

State Highs State Lows

Community

WunderPhotos

Category 6

Welcome to Category 6. This is the collective home for Weather Underground's featured writeups by Dr. Jeff Masters (right), Bob Henson (left), Chris Burt, and other regular contributors.

Nearby

Air Quality

  Air Quality AQ Index Pollutant
Not available.

Snow Depth

Station Depth Elevation

Earthquake Activity

City Distance Mag. Time & Date
Minimum magnitude displayed is 2.5.

Coastal Water Temperatures

Place Temperature

Stations

Nearby Weather Stations

Station Location Temp. Windchill Dew Point Humidity Wind Precip. Elev Updated Type
                   

Watches & Warnings

Special Statement
Issued: 4:50 AM EDT Jun. 27, 2017 – National Weather Service

... Gusty winds and small hail possible today...

Scattered to numerous showers and isolated thunderstorms are
expected to develop over northern New York and Vermont during the
late morning and afternoon hours. This activity will move from
southwest to northeast across the area. Any of the storms will
have the potential to produce gusty winds... in the 30 to 40 mph
range... and small hail. The threat for stronger storms will end by
evening. Anyone with outdoor plans today should be aware of the
potential for lightning... gusty winds... and hail. Seek shelter
indoors as storms approach.


Evenson